Canton, Ohio
Current Conditions -  °F | °C
As of 5:51 PM on Tuesday 21 Oct 2014 (Local Time) from KCAK Reporting Station
Light Rain Light Rain  
Wind Chill: 42°   Ceiling: 900
Heat Index: 47°   Visibility: 4mi
Dew Point: 43°   Wind: 12mph
Humidity: 86%   Direction: 320°NW
Pressure: 30"   Gusts: 20mph
Location:  40.8°N, 81.37°W
Report Text: KCAK 212151Z 32010G17KT 4SM -RA BR BKN009 OVC014 08/06 A3000 RMK AO2 SLP162 P0000 T00830061 $
Loading
Personal Weather Stations






























Interactive Weather Map
Tropical Storm Tracking
New forecast layout! Learn more

10-Day Weather Forecast

Advertisements
Track Severe Weather on mobile